Time;durP1;ratioP1;P1;durP2;ratioP2;P2;SDS_P1;SDS_P2;PMS_P1;PMS_P2;Temp;Humidity;BMP_temperature;BMP_pressure;BME280_temperature;BME280_humidity;BME280_pressure;Samples;Min_cycle;Max_cycle;Signal;HPM_P1;HPM_P2
2021/04/03 00:00:43;;;;;;;1999.90;999.90;;;;;;;4.70;100.00;-18035.72;5061228;28;20949;-30
2021/04/03 00:03:30;;;;;;;1999.90;999.90;;;;;;;4.84;100.00;-18039.34;5058897;28;20462;-29
2021/04/03 00:06:16;;;;;;;1999.90;999.90;;;;;;;4.84;100.00;-18039.47;5060212;28;20447;-30
2021/04/03 00:09:03;;;;;;;1999.90;999.90;;;;;;;4.98;100.00;-18043.09;5063855;28;20498;-30
2021/04/03 00:11:49;;;;;;;1999.90;999.90;;;;;;;5.32;100.00;-18051.97;5071119;28;20540;-30
2021/04/03 00:14:39;;;;;;;1999.90;999.90;;;;;;;5.23;100.00;-18049.69;5062816;28;20597;-30
2021/04/03 00:17:24;;;;;;;1999.90;999.90;;;;;;;5.02;100.00;-18044.19;5062002;28;20605;-30
2021/04/03 00:20:13;;;;;;;1999.90;999.90;;;;;;;5.28;100.00;-18050.88;5066016;28;20542;-30
2021/04/03 00:23:00;;;;;;;1999.90;999.90;;;;;;;5.46;100.00;-18055.72;5064490;28;20447;-30
2021/04/03 00:25:46;;;;;;;1999.90;999.90;;;;;;;5.58;100.00;-18058.94;5061835;28;21008;-29
2021/04/03 00:28:32;;;;;;;1999.90;999.90;;;;;;;5.70;100.00;-18062.16;5061960;28;20582;-29
2021/04/03 00:31:23;;;;;;;1999.90;999.90;;;;;;;5.75;100.00;-18063.50;5061942;28;20442;-30
2021/04/03 00:34:08;;;;;;;1999.90;999.90;;;;;;;5.76;100.00;-18063.78;5064795;28;20829;-30
2021/04/03 00:36:54;;;;;;;1999.90;999.90;;;;;;;5.61;100.00;-18059.63;5062883;28;20446;-30
2021/04/03 00:39:40;;;;;;;1999.90;999.90;;;;;;;5.52;100.00;-18057.47;5061491;28;20727;-30
2021/04/03 00:42:26;;;;;;;1999.90;999.90;;;;;;;5.22;100.00;-18049.41;5061751;28;20192;-30
2021/04/03 00:45:14;;;;;;;1999.90;999.90;;;;;;;5.57;100.00;-18058.53;5061533;28;20454;-30
2021/04/03 00:48:00;;;;;;;1999.90;999.90;;;;;;;5.71;100.00;-18062.44;5061583;28;20485;-29
2021/04/03 00:50:48;;;;;;;1999.90;999.90;;;;;;;5.40;100.00;-18054.25;5061692;28;20443;-30
2021/04/03 00:53:33;;;;;;;1999.90;999.90;;;;;;;5.73;100.00;-18062.84;5060821;28;20447;-30
2021/04/03 00:56:19;;;;;;;1999.90;999.90;;;;;;;5.81;100.00;-18065.13;5060649;28;20447;-29
2021/04/03 00:59:07;;;;;;;1999.90;999.90;;;;;;;5.96;100.00;-18069.00;5061496;28;20607;-30
2021/04/03 01:01:52;;;;;;;1999.90;999.90;;;;;;;5.57;100.00;-18058.53;5060902;28;20200;-30
2021/04/03 01:04:39;;;;;;;1999.90;999.90;;;;;;;5.74;100.00;-18063.25;5069473;28;20438;-29
2021/04/03 01:07:25;;;;;;;1999.90;999.90;;;;;;;5.61;100.00;-18059.75;5065491;28;20215;-30
2021/04/03 01:10:17;;;;;;;1999.90;999.90;;;;;;;5.79;100.00;-18064.44;5061157;28;20450;-30
2021/04/03 01:13:20;;;;;;;1999.90;999.90;;;;;;;5.81;100.00;-18064.97;5063086;28;20447;-29
2021/04/03 01:16:13;;;;;;;1999.90;999.90;;;;;;;5.94;100.00;-18068.34;5060358;28;20450;-30
2021/04/03 01:19:14;;;;;;;1999.90;999.90;;;;;;;5.98;100.00;-18069.41;5033240;28;760618;-30
2021/04/03 01:22:34;;;;;;;1999.90;999.90;;;;;;;6.04;100.00;-18071.16;5060423;28;20259;-29
2021/04/03 01:25:29;;;;;;;1999.90;999.90;;;;;;;6.13;100.00;-18073.56;5060186;28;20614;-29
2021/04/03 01:28:35;;;;;;;1999.90;999.90;;;;;;;6.31;100.00;-18078.28;5062945;28;20228;-29
2021/04/03 01:31:22;;;;;;;1999.90;999.90;;;;;;;6.10;100.00;-18072.63;5060114;28;20439;-30
2021/04/03 01:34:13;;;;;;;1999.90;999.90;;;;;;;5.91;100.00;-18067.53;5060800;28;20451;-30
2021/04/03 01:37:02;;;;;;;1999.90;999.90;;;;;;;5.97;100.00;-18069.16;5060118;28;20447;-30
2021/04/03 01:39:53;;;;;;;1999.90;999.90;;;;;;;6.01;100.00;-18070.34;5062561;28;20658;-30
2021/04/03 01:42:39;;;;;;;1999.90;999.90;;;;;;;5.50;100.00;-18056.94;5060284;28;20523;-30
2021/04/03 01:45:26;;;;;;;1999.90;999.90;;;;;;;5.91;100.00;-18067.66;5062125;28;20280;-30
2021/04/03 01:48:16;;;;;;;1999.90;999.90;;;;;;;5.69;100.00;-18061.75;5061377;28;20490;-30
2021/04/03 01:51:03;;;;;;;1999.90;999.90;;;;;;;5.50;100.00;-18056.94;5063539;28;20510;-30
2021/04/03 01:53:50;;;;;;;1999.90;999.90;;;;;;;5.45;100.00;-18055.59;5062982;28;20493;-30
2021/04/03 01:56:41;;;;;;;1999.90;999.90;;;;;;;5.69;100.00;-18061.91;5067925;28;20733;-30
2021/04/03 01:59:27;;;;;;;1999.90;999.90;;;;;;;5.41;100.00;-18054.50;5059653;28;20442;-30
2021/04/03 02:02:17;;;;;;;1999.90;999.90;;;;;;;5.66;100.00;-18061.09;5059078;28;20556;-30
2021/04/03 02:05:08;;;;;;;1999.90;999.90;;;;;;;5.60;100.00;-18059.47;5061702;28;20557;-30
2021/04/03 02:07:56;;;;;;;1999.90;999.90;;;;;;;5.72;100.00;-18062.69;5060281;28;20479;-30
2021/04/03 02:10:43;;;;;;;1999.90;999.90;;;;;;;5.38;100.00;-18053.72;5063005;28;20462;-30
2021/04/03 02:13:31;;;;;;;1999.90;999.90;;;;;;;5.40;100.00;-18054.09;5059667;28;20435;-30
2021/04/03 02:16:19;;;;;;;1999.90;999.90;;;;;;;5.46;100.00;-18055.84;5059131;28;20447;-30
2021/04/03 02:19:07;;;;;;;1999.90;999.90;;;;;;;5.44;100.00;-18055.19;5061443;28;20572;-30
2021/04/03 02:21:55;;;;;;;1999.90;999.90;;;;;;;5.56;100.00;-18058.28;5062336;28;20924;-30
2021/04/03 02:24:43;;;;;;;1999.90;999.90;;;;;;;5.44;100.00;-18055.19;5058933;28;20443;-30
2021/04/03 02:27:29;;;;;;;1999.90;999.90;;;;;;;5.22;100.00;-18049.28;5058614;28;20879;-29
2021/04/03 02:30:18;;;;;;;1999.90;999.90;;;;;;;5.41;100.00;-18054.38;5058759;28;20506;-30
2021/04/03 02:33:06;;;;;;;1999.90;999.90;;;;;;;5.47;100.00;-18056.13;5061045;28;20446;-30
2021/04/03 02:35:51;;;;;;;1999.90;999.90;;;;;;;5.27;100.00;-18050.63;5060481;28;20550;-30
2021/04/03 02:38:38;;;;;;;1999.90;999.90;;;;;;;5.41;100.00;-18054.38;5058526;28;20562;-29
2021/04/03 02:41:36;;;;;;;1999.90;999.90;;;;;;;5.34;100.00;-18052.50;5058864;28;20729;-30
2021/04/03 02:44:28;;;;;;;1999.90;999.90;;;;;;;5.61;100.00;-18059.63;5060941;28;20443;-30
2021/04/03 02:47:17;;;;;;;1999.90;999.90;;;;;;;5.27;100.00;-18050.63;5059714;28;20451;-29
2021/04/03 02:50:07;;;;;;;1999.90;999.90;;;;;;;5.16;100.00;-18047.94;5058204;28;20459;-30
2021/04/03 02:52:54;;;;;;;1999.90;999.90;;;;;;;5.16;100.00;-18047.81;5058129;28;20450;-29
2021/04/03 02:55:47;;;;;;;1999.90;999.90;;;;;;;5.20;100.00;-18048.88;5058145;28;21220;-30
2021/04/03 02:58:38;;;;;;;1999.90;999.90;;;;;;;5.48;100.00;-18056.38;5057947;28;20751;-30
2021/04/03 03:01:28;;;;;;;1999.90;999.90;;;;;;;5.82;100.00;-18065.38;5057915;28;20735;-30
2021/04/03 03:04:16;;;;;;;1999.90;999.90;;;;;;;5.94;100.00;-18068.47;5057530;28;20462;-30
2021/04/03 03:07:07;;;;;;;1999.90;999.90;;;;;;;5.86;100.00;-18066.31;5058007;28;20447;-30
2021/04/03 03:09:54;;;;;;;1999.90;999.90;;;;;;;5.70;100.00;-18062.03;5057893;28;20443;-30
2021/04/03 03:12:42;;;;;;;1999.90;999.90;;;;;;;5.65;100.00;-18060.81;5058207;28;20451;-30
2021/04/03 03:15:31;;;;;;;1999.90;999.90;;;;;;;5.49;100.00;-18056.53;5057639;28;20443;-30
2021/04/03 03:18:18;;;;;;;1999.90;999.90;;;;;;;5.62;100.00;-18060.00;5070334;28;20467;-30
2021/04/03 03:21:04;;;;;;;1999.90;999.90;;;;;;;5.28;100.00;-18050.88;5072196;28;20497;-30
2021/04/03 03:23:50;;;;;;;1999.90;999.90;;;;;;;5.27;100.00;-18050.75;5057994;28;20451;-30
2021/04/03 03:26:38;;;;;;;1999.90;999.90;;;;;;;5.37;100.00;-18053.31;5057570;28;20442;-29
2021/04/03 03:29:26;;;;;;;1999.90;999.90;;;;;;;5.19;100.00;-18048.75;5057760;28;20525;-27
2021/04/03 03:32:12;;;;;;;1999.90;999.90;;;;;;;5.37;100.00;-18053.31;5057441;28;20956;-30
2021/04/03 03:34:58;;;;;;;1999.90;999.90;;;;;;;5.10;100.00;-18046.31;5058845;28;20846;-30
2021/04/03 03:37:45;;;;;;;1999.90;999.90;;;;;;;4.71;100.00;-18035.97;5057750;28;20953;-29
2021/04/03 03:40:32;;;;;;;1999.90;999.90;;;;;;;5.01;100.00;-18043.78;5056443;28;20439;-30
2021/04/03 03:43:17;;;;;;;1999.90;999.90;;;;;;;5.22;100.00;-18049.28;5057634;28;20540;-30
2021/04/03 03:46:06;;;;;;;1999.90;999.90;;;;;;;4.78;100.00;-18037.72;5057487;28;20435;-30
2021/04/03 03:48:51;;;;;;;1999.90;999.90;;;;;;;4.97;100.00;-18042.69;5058849;28;20914;-29
2021/04/03 03:51:37;;;;;;;1999.90;999.90;;;;;;;4.84;100.00;-18039.34;5065668;28;20450;-30
2021/04/03 03:54:23;;;;;;;1999.90;999.90;;;;;;;5.20;100.00;-18048.88;5057243;28;20997;-29
2021/04/03 03:57:08;;;;;;;1999.90;999.90;;;;;;;5.41;100.00;-18054.38;5057304;28;20870;-30
2021/04/03 03:59:54;;;;;;;1999.90;999.90;;;;;;;5.19;100.00;-18048.59;5056828;28;20438;-30
2021/04/03 04:02:41;;;;;;;1999.90;999.90;;;;;;;5.26;100.00;-18050.34;5057678;28;20442;-30
2021/04/03 04:05:29;;;;;;;1999.90;999.90;;;;;;;5.19;100.00;-18048.75;5057861;28;20545;-30
2021/04/03 04:08:17;;;;;;;1999.90;999.90;;;;;;;5.28;100.00;-18050.88;5056853;28;20481;-30
2021/04/03 04:11:03;;;;;;;1999.90;999.90;;;;;;;5.54;100.00;-18057.88;5056894;28;20867;-30
2021/04/03 04:13:48;;;;;;;1999.90;999.90;;;;;;;5.86;100.00;-18066.47;5057153;28;20447;-30
2021/04/03 04:16:34;;;;;;;1999.90;999.90;;;;;;;5.54;100.00;-18058.00;5056589;28;20854;-29
2021/04/03 04:19:20;;;;;;;1999.90;999.90;;;;;;;5.43;100.00;-18054.91;5057699;28;20465;-30
2021/04/03 04:22:06;;;;;;;1999.90;999.90;;;;;;;5.60;100.00;-18059.47;5059272;28;20448;-30
2021/04/03 04:24:54;;;;;;;1999.90;999.90;;;;;;;5.43;100.00;-18055.06;5057278;28;20450;-30
2021/04/03 04:27:40;;;;;;;1999.90;999.90;;;;;;;5.10;100.00;-18046.31;5057254;28;20447;-30
2021/04/03 04:30:27;;;;;;;1999.90;999.90;;;;;;;5.23;100.00;-18049.69;5057166;28;20982;-30
2021/04/03 04:33:12;;;;;;;1999.90;999.90;;;;;;;5.17;100.00;-18048.22;5056880;28;20711;-30
2021/04/03 04:35:59;;;;;;;1999.90;999.90;;;;;;;5.40;100.00;-18054.09;5056656;28;20609;-30
2021/04/03 04:38:44;;;;;;;1999.90;999.90;;;;;;;5.12;100.00;-18046.72;5056649;28;20847;-29
2021/04/03 04:41:30;;;;;;;1999.90;999.90;;;;;;;5.27;100.00;-18050.63;5057950;28;20443;-30
2021/04/03 04:44:16;;;;;;;1999.90;999.90;;;;;;;5.60;100.00;-18059.34;5057003;28;20443;-30
2021/04/03 04:47:01;;;;;;;1999.90;999.90;;;;;;;5.23;100.00;-18049.53;5058948;28;20871;-29
2021/04/03 04:49:50;;;;;;;1999.90;999.90;;;;;;;5.29;100.00;-18051.28;5060791;28;20537;-31
2021/04/03 04:52:37;;;;;;;1999.90;999.90;;;;;;;5.27;100.00;-18050.63;5059103;28;20553;-30
2021/04/03 04:55:23;;;;;;;1999.90;999.90;;;;;;;5.07;100.00;-18045.53;5065438;28;20534;-29
2021/04/03 04:58:09;;;;;;;1999.90;999.90;;;;;;;5.34;100.00;-18052.50;5077134;28;20515;-30
2021/04/03 05:00:59;;;;;;;1999.90;999.90;;;;;;;5.56;100.00;-18058.41;5061788;28;20442;-30
2021/04/03 05:03:44;;;;;;;1999.90;999.90;;;;;;;5.76;100.00;-18063.78;5060634;28;20193;-30
2021/04/03 05:06:30;;;;;;;1999.90;999.90;;;;;;;5.42;100.00;-18054.78;5060396;28;20794;-30
2021/04/03 05:09:19;;;;;;;1999.90;999.90;;;;;;;5.34;100.00;-18052.50;5060674;28;20494;-30
2021/04/03 05:12:06;;;;;;;1999.90;999.90;;;;;;;5.41;100.00;-18054.38;5060542;28;20443;-30
2021/04/03 05:14:53;;;;;;;1999.90;999.90;;;;;;;5.05;100.00;-18044.97;5060031;28;20458;-30
2021/04/03 05:17:41;;;;;;;1999.90;999.90;;;;;;;5.31;100.00;-18051.69;5060800;28;20874;-30
2021/04/03 05:20:27;;;;;;;1999.90;999.90;;;;;;;5.14;100.00;-18047.25;5060061;28;20525;-30
2021/04/03 05:23:15;;;;;;;1999.90;999.90;;;;;;;5.51;100.00;-18057.19;5060616;28;20331;-30
2021/04/03 05:26:03;;;;;;;1999.90;999.90;;;;;;;5.62;100.00;-18059.88;5059497;28;20454;-30
2021/04/03 05:28:48;;;;;;;1999.90;999.90;;;;;;;5.97;100.00;-18069.16;5063377;28;20295;-30
2021/04/03 05:31:34;;;;;;;1999.90;999.90;;;;;;;6.02;100.00;-18070.63;5062179;28;20438;-30
2021/04/03 05:34:19;;;;;;;1999.90;999.90;;;;;;;5.50;100.00;-18056.94;5060691;28;20207;-30
2021/04/03 05:37:08;;;;;;;1999.90;999.90;;;;;;;5.62;100.00;-18060.00;5064988;28;20197;-30
2021/04/03 05:39:54;;;;;;;1999.90;999.90;;;;;;;5.49;100.00;-18056.53;5060921;28;20220;-30
2021/04/03 05:42:45;;;;;;;1999.90;999.90;;;;;;;5.53;100.00;-18057.59;5060027;28;20442;-30
2021/04/03 05:45:31;;;;;;;1999.90;999.90;;;;;;;5.99;100.00;-18069.69;5057748;28;20451;-28
2021/04/03 05:48:17;;;;;;;1999.90;999.90;;;;;;;5.66;100.00;-18060.97;5040740;28;20221;-30
2021/04/03 05:51:03;;;;;;;1999.90;999.90;;;;;;;5.69;100.00;-18061.75;5040032;28;20608;-30
2021/04/03 05:53:50;;;;;;;1999.90;999.90;;;;;;;5.90;100.00;-18067.28;5041489;28;20440;-30
2021/04/03 05:56:36;;;;;;;1999.90;999.90;;;;;;;5.60;100.00;-18059.47;5040730;28;20402;-30
2021/04/03 05:59:23;;;;;;;1999.90;999.90;;;;;;;5.82;100.00;-18065.38;5039882;28;20205;-30
2021/04/03 06:02:09;;;;;;;1999.90;999.90;;;;;;;6.40;100.00;-18080.53;5045790;28;20299;-31
2021/04/03 06:04:57;;;;;;;1999.90;999.90;;;;;;;5.67;100.00;-18061.22;5037764;28;20201;-30
2021/04/03 06:07:43;;;;;;;1999.90;999.90;;;;;;;5.49;100.00;-18056.53;5039483;28;20344;-30
2021/04/03 06:10:29;;;;;;;1999.90;999.90;;;;;;;6.13;100.00;-18073.44;5045428;28;20201;-30
2021/04/03 06:13:19;;;;;;;1999.90;999.90;;;;;;;5.75;100.00;-18063.50;5055339;28;20199;-28
2021/04/03 06:16:24;;;;;;;1999.90;999.90;;;;;;;5.94;100.00;-18068.34;5052971;28;20197;-28
2021/04/03 06:19:13;;;;;;;1999.90;999.90;;;;;;;5.86;100.00;-18066.31;5039742;28;20295;-28
2021/04/03 06:22:00;;;;;;;1999.90;999.90;;;;;;;5.69;100.00;-18061.75;5042027;28;20196;-29
2021/04/03 06:24:48;;;;;;;1999.90;999.90;;;;;;;6.11;100.00;-18072.91;5040360;28;20478;-28
2021/04/03 06:27:35;;;;;;;1999.90;999.90;;;;;;;5.81;100.00;-18065.13;5039378;28;20205;-29
2021/04/03 06:30:34;;;;;;;1999.90;999.90;;;;;;;6.00;100.00;-18069.94;5043122;28;20291;-28
2021/04/03 06:33:22;;;;;;;1999.90;999.90;;;;;;;6.40;100.00;-18080.53;5043943;28;20481;-28
2021/04/03 06:36:12;;;;;;;1999.90;999.90;;;;;;;6.27;100.00;-18077.19;5040103;28;20600;-28
2021/04/03 06:38:59;;;;;;;1999.90;999.90;;;;;;;6.13;100.00;-18073.44;5042226;28;20319;-28
2021/04/03 06:41:45;;;;;;;1999.90;999.90;;;;;;;5.76;100.00;-18063.78;5038715;28;20563;-28
2021/04/03 06:44:31;;;;;;;1999.90;999.90;;;;;;;6.17;100.00;-18074.50;5038669;28;20201;-28
2021/04/03 06:47:16;;;;;;;1999.90;999.90;;;;;;;6.28;100.00;-18077.47;5037526;28;20259;-29
2021/04/03 06:50:19;;;;;;;1999.90;999.90;;;;;;;5.98;100.00;-18069.41;5038101;28;20197;-29
2021/04/03 06:53:07;;;;;;;1999.90;999.90;;;;;;;5.69;100.00;-18061.75;5040096;28;20201;-28
2021/04/03 06:55:53;;;;;;;1999.90;999.90;;;;;;;6.03;100.00;-18070.88;5040757;28;20286;-29
2021/04/03 06:58:44;;;;;;;1999.90;999.90;;;;;;;5.86;100.00;-18066.31;5040189;28;20248;-29
2021/04/03 07:01:57;;;;;;;1999.90;999.90;;;;;;;5.66;100.00;-18061.09;5036955;28;20197;-29
2021/04/03 07:04:45;;;;;;;1999.90;999.90;;;;;;;6.15;100.00;-18074.13;5019170;28;20205;-29
2021/04/03 07:07:35;;;;;;;1999.90;999.90;;;;;;;5.59;100.00;-18059.06;5047162;28;20210;-29
2021/04/03 07:10:29;;;;;;;1999.90;999.90;;;;;;;5.72;100.00;-18062.56;5058420;28;20604;-29
2021/04/03 07:13:17;;;;;;;1999.90;999.90;;;;;;;5.74;100.00;-18063.25;5037729;28;20502;-29
2021/04/03 07:16:05;;;;;;;1999.90;999.90;;;;;;;5.71;100.00;-18062.31;5036176;28;20535;-29
2021/04/03 07:18:53;;;;;;;1999.90;999.90;;;;;;;6.21;100.00;-18075.72;5036829;28;20233;-29
2021/04/03 07:21:42;;;;;;;1999.90;999.90;;;;;;;6.35;100.00;-18079.22;5043214;28;20252;-29
2021/04/03 07:24:29;;;;;;;1999.90;999.90;;;;;;;6.28;100.00;-18077.34;5060298;28;20203;-29
2021/04/03 07:27:18;;;;;;;1999.90;999.90;;;;;;;5.47;100.00;-18056.00;5059631;28;20212;-30
2021/04/03 07:30:06;;;;;;;1999.90;999.90;;;;;;;5.60;100.00;-18059.34;5059895;28;20336;-30
2021/04/03 07:33:06;;;;;;;1999.90;999.90;;;;;;;5.84;100.00;-18065.91;5058985;28;20420;-29
2021/04/03 07:35:53;;;;;;;1999.90;999.90;;;;;;;5.38;100.00;-18053.72;5064138;28;20243;-30
2021/04/03 07:38:38;;;;;;;1999.90;999.90;;;;;;;5.49;100.00;-18056.53;5057474;28;20227;-29
2021/04/03 07:41:35;;;;;;;1999.90;999.90;;;;;;;5.80;100.00;-18064.84;5057223;28;20197;-29
2021/04/03 07:44:32;;;;;;;1999.90;999.90;;;;;;;5.79;100.00;-18064.59;5057958;28;20200;-29
2021/04/03 07:47:19;;;;;;;1999.90;999.90;;;;;;;5.60;100.00;-18059.34;5056494;28;20204;-29
2021/04/03 07:50:09;;;;;;;1999.90;999.90;;;;;;;5.82;100.00;-18065.38;5055883;28;20203;-29
2021/04/03 07:52:55;;;;;;;1999.90;999.90;;;;;;;5.74;100.00;-18063.25;5058003;28;20267;-29
2021/04/03 07:55:44;;;;;;;1999.90;999.90;;;;;;;5.86;100.00;-18066.31;5056666;28;21034;-29
2021/04/03 07:58:33;;;;;;;1999.90;999.90;;;;;;;5.92;100.00;-18067.81;5056861;28;20200;-29
2021/04/03 08:01:36;;;;;;;1999.90;999.90;;;;;;;6.16;100.00;-18074.38;5059627;28;20286;-30
2021/04/03 08:04:29;;;;;;;1999.90;999.90;;;;;;;5.90;100.00;-18067.28;5060699;28;20274;-30
2021/04/03 08:07:18;;;;;;;1999.90;999.90;;;;;;;6.28;100.00;-18077.47;5057530;28;20204;-30
2021/04/03 08:10:17;;;;;;;1999.90;999.90;;;;;;;6.51;100.00;-18083.50;5057682;28;20200;-30
2021/04/03 08:13:03;;;;;;;1999.90;999.90;;;;;;;6.87;100.00;-18093.16;5055301;28;20481;-30
2021/04/03 08:15:49;;;;;;;1999.90;999.90;;;;;;;6.73;100.00;-18089.28;5056784;28;20347;-30
2021/04/03 08:18:37;;;;;;;1999.90;999.90;;;;;;;7.15;100.00;-18100.53;5057230;28;20235;-30
2021/04/03 08:21:23;;;;;;;1999.90;999.90;;;;;;;7.11;100.00;-18099.47;5057584;28;20685;-29
2021/04/03 08:24:09;;;;;;;1999.90;999.90;;;;;;;7.36;100.00;-18105.91;5057579;28;20298;-30
2021/04/03 08:26:55;;;;;;;1999.90;999.90;;;;;;;6.93;100.00;-18094.63;5063318;28;20192;-30
2021/04/03 08:29:40;;;;;;;1999.90;999.90;;;;;;;6.86;100.00;-18092.75;5063300;28;20196;-30
2021/04/03 08:32:29;;;;;;;1999.90;999.90;;;;;;;6.92;100.00;-18094.38;5061100;28;20664;-29
2021/04/03 08:35:28;;;;;;;1999.90;999.90;;;;;;;6.97;100.00;-18095.72;5061594;28;20205;-30
2021/04/03 08:38:20;;;;;;;1999.90;999.90;;;;;;;7.26;100.00;-18103.47;5060535;28;20282;-30
2021/04/03 08:41:12;;;;;;;1999.90;999.90;;;;;;;7.61;100.00;-18112.72;5060381;28;20208;-31
2021/04/03 08:43:59;;;;;;;1999.90;999.90;;;;;;;8.05;100.00;-18124.13;5060964;28;20216;-30
2021/04/03 08:46:48;;;;;;;1999.90;999.90;;;;;;;7.90;100.00;-18120.38;5063136;28;20235;-30
2021/04/03 08:49:37;;;;;;;1999.90;999.90;;;;;;;7.61;100.00;-18112.72;5061619;28;20377;-30
2021/04/03 08:52:22;;;;;;;1999.90;999.90;;;;;;;7.24;100.00;-18102.81;5060631;28;20476;-30
2021/04/03 08:55:10;;;;;;;1999.90;999.90;;;;;;;7.26;100.00;-18103.47;5060714;28;20338;-30
2021/04/03 08:57:59;;;;;;;1999.90;999.90;;;;;;;7.45;100.00;-18108.44;5061302;28;20272;-30
2021/04/03 09:00:45;;;;;;;1999.90;999.90;;;;;;;7.48;100.00;-18109.09;5065499;28;20719;-29
2021/04/03 09:03:33;;;;;;;1999.90;999.90;;;;;;;8.21;100.00;-18128.41;5061316;28;20200;-29
2021/04/03 09:06:50;;;;;;;1999.90;999.90;;;;;;;7.53;100.00;-18110.44;5060268;28;20217;-30
2021/04/03 09:09:40;;;;;;;1999.90;999.90;;;;;;;7.45;100.00;-18108.44;5059916;28;20283;-30
2021/04/03 09:12:30;;;;;;;1999.90;999.90;;;;;;;7.38;100.00;-18106.56;5060586;28;20196;-30
2021/04/03 09:15:25;;;;;;;1999.90;999.90;;;;;;;7.47;100.00;-18108.84;5059962;28;20199;-30
2021/04/03 09:18:10;;;;;;;1999.90;999.90;;;;;;;7.89;100.00;-18119.97;5059278;28;20256;-30
2021/04/03 09:20:56;;;;;;;1999.90;999.90;;;;;;;6.94;100.00;-18094.91;5058041;28;20205;-30
2021/04/03 09:23:44;;;;;;;1999.90;999.90;;;;;;;7.05;100.00;-18097.72;5060385;28;20433;-29
2021/04/03 09:26:37;;;;;;;1999.90;999.90;;;;;;;7.41;100.00;-18107.38;5059225;28;20196;-30
2021/04/03 09:29:23;;;;;;;1999.90;999.90;;;;;;;7.75;100.00;-18116.34;5060061;28;20588;-30
2021/04/03 09:32:11;;;;;;;1999.90;999.90;;;;;;;8.40;100.00;-18133.38;5063192;28;20298;-30
2021/04/03 09:35:05;;;;;;;1999.90;999.90;;;;;;;8.29;100.00;-18130.69;5061525;28;20204;-30
2021/04/03 09:37:58;;;;;;;1999.90;999.90;;;;;;;9.43;100.00;-18160.69;5060217;28;20208;-30
2021/04/03 09:40:46;;;;;;;1999.90;999.90;;;;;;;9.45;100.00;-18161.06;5071677;28;20238;-32
2021/04/03 09:43:41;;;;;;;1999.90;999.90;;;;;;;9.38;100.00;-18159.22;5076799;28;20243;-29
2021/04/03 09:46:29;;;;;;;1999.90;999.90;;;;;;;9.82;100.00;-18170.97;5061287;28;20352;-30
2021/04/03 09:49:14;;;;;;;1999.90;999.90;;;;;;;9.38;100.00;-18159.22;5061165;28;20198;-29
2021/04/03 09:52:00;;;;;;;1999.90;999.90;;;;;;;8.19;100.00;-18128.00;5062562;28;20194;-30
2021/04/03 09:54:47;;;;;;;1999.90;999.90;;;;;;;9.29;100.00;-18157.06;5059889;28;20242;-29
2021/04/03 09:57:33;;;;;;;1999.90;999.90;;;;;;;9.96;100.00;-18174.59;5058263;28;20342;-30
2021/04/03 10:00:21;;;;;;;1999.90;999.90;;;;;;;10.37;100.00;-18185.44;5060074;28;20229;-30
2021/04/03 10:03:08;;;;;;;1999.90;999.90;;;;;;;10.86;100.00;-18198.25;5058634;28;20596;-30
2021/04/03 10:06:01;;;;;;;1999.90;999.90;;;;;;;10.73;99.93;-18194.78;5058210;28;20204;-29
2021/04/03 10:08:51;;;;;;;1999.90;999.90;;;;;;;9.60;100.00;-18165.22;5067123;28;20196;-30
2021/04/03 10:11:44;;;;;;;1999.90;999.90;;;;;;;10.17;100.00;-18180.06;5057902;28;20200;-30
2021/04/03 10:14:33;;;;;;;1999.90;999.90;;;;;;;10.46;100.00;-18187.69;5059357;28;20200;-30
2021/04/03 10:17:54;;;;;;;1999.90;999.90;;;;;;;10.46;98.86;-18187.84;5058562;28;20244;-29
2021/04/03 10:20:40;;;;;;;1999.90;999.90;;;;;;;10.93;99.92;-18200.13;5061694;28;20247;-29
2021/04/03 10:23:26;;;;;;;1999.90;999.90;;;;;;;12.94;82.10;-18253.03;5058640;28;20227;-29
2021/04/03 10:26:23;;;;;;;1999.90;999.90;;;;;;;11.72;87.83;-18221.13;5059151;28;20210;-30
2021/04/03 10:29:24;;;;;;;1999.90;999.90;;;;;;;13.40;81.68;-18265.31;5058816;28;20196;-30
2021/04/03 10:32:16;;;;;;;1999.90;999.90;;;;;;;12.22;83.40;-18234.19;5057920;28;20346;-29
2021/04/03 10:35:08;;;;;;;1999.90;999.90;;;;;;;10.82;94.16;-18197.19;5059327;28;20193;-29
2021/04/03 10:37:53;;;;;;;1999.90;999.90;;;;;;;11.33;91.44;-18210.69;5059106;28;20605;-29
2021/04/03 10:40:39;;;;;;;1999.90;999.90;;;;;;;12.66;81.47;-18245.81;5058019;28;20640;-29
2021/04/03 10:43:27;;;;;;;1999.90;999.90;;;;;;;13.06;79.44;-18256.22;5055816;28;20624;-29
2021/04/03 10:46:12;;;;;;;1999.90;999.90;;;;;;;13.06;78.39;-18256.22;5057884;28;20612;-30
2021/04/03 10:49:02;;;;;;;1999.90;999.90;;;;;;;13.24;76.19;-18261.03;5057388;28;20200;-29
2021/04/03 10:51:49;;;;;;;1999.90;999.90;;;;;;;13.39;76.76;-18264.91;5060159;28;20212;-30
2021/04/03 10:54:35;;;;;;;1999.90;999.90;;;;;;;13.19;78.71;-18259.69;5057558;28;20611;-30
2021/04/03 10:57:23;;;;;;;1999.90;999.90;;;;;;;14.43;73.76;-18292.38;5059186;28;20331;-31
2021/04/03 11:00:10;;;;;;;1999.90;999.90;;;;;;;12.66;80.95;-18245.81;5058592;28;20659;-29
2021/04/03 11:02:56;;;;;;;1999.90;999.90;;;;;;;12.11;83.93;-18231.28;5059939;28;20606;-29
2021/04/03 11:05:41;;;;;;;1999.90;999.90;;;;;;;12.31;83.74;-18236.47;5064636;28;20256;-29
2021/04/03 11:08:29;;;;;;;1999.90;999.90;;;;;;;13.29;77.53;-18262.38;5068226;28;20476;-30
2021/04/03 11:11:18;;;;;;;1999.90;999.90;;;;;;;13.75;76.36;-18274.50;5059733;28;20485;-29
2021/04/03 11:14:03;;;;;;;1999.90;999.90;;;;;;;12.59;81.96;-18243.94;5058187;28;20196;-29
2021/04/03 11:16:49;;;;;;;1999.90;999.90;;;;;;;12.40;84.93;-18239.00;5057325;28;20658;-29
2021/04/03 11:19:34;;;;;;;1999.90;999.90;;;;;;;14.31;75.11;-18289.03;5058519;28;20394;-29
2021/04/03 11:22:20;;;;;;;1999.90;999.90;;;;;;;13.00;76.99;-18254.63;5056186;28;20205;-30
2021/04/03 11:25:09;;;;;;;1999.90;999.90;;;;;;;14.33;69.93;-18289.56;5057542;28;20245;-29
2021/04/03 11:27:54;;;;;;;1999.90;999.90;;;;;;;13.32;72.18;-18263.16;5056565;28;20506;-30
2021/04/03 11:30:43;;;;;;;1999.90;999.90;;;;;;;15.62;68.13;-18323.53;5066044;28;20192;-30
2021/04/03 11:33:28;;;;;;;1999.90;999.90;;;;;;;13.78;73.40;-18275.31;5059100;28;20251;-30
2021/04/03 11:36:14;;;;;;;1999.90;999.90;;;;;;;12.29;79.17;-18236.06;5057666;28;20225;-30
2021/04/03 11:39:07;;;;;;;1999.90;999.90;;;;;;;13.53;75.09;-18268.50;5058162;28;20294;-30
2021/04/03 11:42:01;;;;;;;1999.90;999.90;;;;;;;12.86;78.73;-18250.88;5057110;28;20204;-30
2021/04/03 11:44:53;;;;;;;1999.90;999.90;;;;;;;12.23;80.41;-18234.34;5057446;28;20343;-30
2021/04/03 11:47:45;;;;;;;1999.90;999.90;;;;;;;11.46;82.43;-18214.16;5057573;28;20295;-29
2021/04/03 11:50:30;;;;;;;1999.90;999.90;;;;;;;10.62;88.42;-18192.13;5060921;28;20595;-29
2021/04/03 11:53:16;;;;;;;1999.90;999.90;;;;;;;12.52;84.83;-18242.09;5052278;28;20227;-30
2021/04/03 11:56:03;;;;;;;1999.90;999.90;;;;;;;12.70;79.20;-18246.88;5043207;28;20201;-29
2021/04/03 11:58:50;;;;;;;1999.90;999.90;;;;;;;13.07;76.66;-18256.50;5045138;28;20200;-29
2021/04/03 12:01:35;;;;;;;1999.90;999.90;;;;;;;11.81;81.30;-18223.25;5039925;28;20205;-30
2021/04/03 12:04:26;;;;;;;1999.90;999.90;;;;;;;13.26;76.45;-18261.44;5042430;28;20295;-29
2021/04/03 12:07:11;;;;;;;1999.90;999.90;;;;;;;13.02;75.41;-18255.16;5042093;28;20213;-29
2021/04/03 12:09:57;;;;;;;1999.90;999.90;;;;;;;12.27;81.48;-18235.53;5043669;28;20209;-29
2021/04/03 12:12:44;;;;;;;1999.90;999.90;;;;;;;12.83;74.49;-18250.09;5044353;28;20205;-30
2021/04/03 12:15:31;;;;;;;1999.90;999.90;;;;;;;14.73;70.70;-18300.09;5041150;28;20340;-30
2021/04/03 12:18:18;;;;;;;1999.90;999.90;;;;;;;14.24;69.36;-18287.16;5042094;28;20653;-30
2021/04/03 12:21:04;;;;;;;1999.90;999.90;;;;;;;13.80;71.62;-18275.69;5041081;28;20221;-30